sensor_id;sensor_type;location;lat;lon;timestamp;temperature;humidity
45104;DHT22;30865;51.288;4.572;2023-03-31T00:01:48;10.90;99.90
45104;DHT22;30865;51.288;4.572;2023-03-31T00:04:13;11.00;99.90
45104;DHT22;30865;51.288;4.572;2023-03-31T00:06:40;11.10;99.90
45104;DHT22;30865;51.288;4.572;2023-03-31T00:09:12;11.00;99.90
45104;DHT22;30865;51.288;4.572;2023-03-31T00:11:38;11.00;99.90
45104;DHT22;30865;51.288;4.572;2023-03-31T00:14:05;11.00;99.90
45104;DHT22;30865;51.288;4.572;2023-03-31T00:16:34;11.10;99.90
45104;DHT22;30865;51.288;4.572;2023-03-31T00:19:00;11.10;99.90
45104;DHT22;30865;51.288;4.572;2023-03-31T00:21:26;11.10;99.90
45104;DHT22;30865;51.288;4.572;2023-03-31T00:24:09;11.10;99.90
45104;DHT22;30865;51.288;4.572;2023-03-31T00:26:35;11.10;99.90
45104;DHT22;30865;51.288;4.572;2023-03-31T00:29:02;11.10;99.90
45104;DHT22;30865;51.288;4.572;2023-03-31T00:31:28;11.10;99.90
45104;DHT22;30865;51.288;4.572;2023-03-31T00:33:55;11.00;99.90
45104;DHT22;30865;51.288;4.572;2023-03-31T00:36:21;11.10;99.90
45104;DHT22;30865;51.288;4.572;2023-03-31T00:38:55;11.10;99.90
45104;DHT22;30865;51.288;4.572;2023-03-31T00:41:23;11.10;99.90
45104;DHT22;30865;51.288;4.572;2023-03-31T00:44:17;11.10;99.90
45104;DHT22;30865;51.288;4.572;2023-03-31T00:49:35;11.10;99.90
45104;DHT22;30865;51.288;4.572;2023-03-31T00:52:16;11.10;99.90
45104;DHT22;30865;51.288;4.572;2023-03-31T00:54:46;11.10;99.90
45104;DHT22;30865;51.288;4.572;2023-03-31T00:57:14;11.10;99.90
45104;DHT22;30865;51.288;4.572;2023-03-31T00:59:46;11.00;99.90
45104;DHT22;30865;51.288;4.572;2023-03-31T01:02:14;11.10;99.90
45104;DHT22;30865;51.288;4.572;2023-03-31T01:04:44;11.10;99.90
45104;DHT22;30865;51.288;4.572;2023-03-31T01:07:19;11.10;99.90
45104;DHT22;30865;51.288;4.572;2023-03-31T01:09:47;11.10;99.90
45104;DHT22;30865;51.288;4.572;2023-03-31T01:12:16;11.10;99.90
45104;DHT22;30865;51.288;4.572;2023-03-31T01:14:42;11.10;99.90
45104;DHT22;30865;51.288;4.572;2023-03-31T01:17:08;11.00;99.90
45104;DHT22;30865;51.288;4.572;2023-03-31T01:31:19;11.30;99.90
45104;DHT22;30865;51.288;4.572;2023-03-31T01:36:49;11.30;99.90
45104;DHT22;30865;51.288;4.572;2023-03-31T01:42:16;11.30;99.90
45104;DHT22;30865;51.288;4.572;2023-03-31T01:48:06;11.30;99.90
45104;DHT22;30865;51.288;4.572;2023-03-31T01:53:04;11.20;99.90
45104;DHT22;30865;51.288;4.572;2023-03-31T01:55:45;11.20;99.90
45104;DHT22;30865;51.288;4.572;2023-03-31T01:58:19;11.20;99.90
45104;DHT22;30865;51.288;4.572;2023-03-31T02:00:56;11.20;99.90
45104;DHT22;30865;51.288;4.572;2023-03-31T02:03:30;11.30;99.90
45104;DHT22;30865;51.288;4.572;2023-03-31T02:06:01;11.50;99.20
45104;DHT22;30865;51.288;4.572;2023-03-31T02:08:32;11.80;98.20
45104;DHT22;30865;51.288;4.572;2023-03-31T02:11:01;11.90;98.80
45104;DHT22;30865;51.288;4.572;2023-03-31T02:13:27;12.00;97.70
45104;DHT22;30865;51.288;4.572;2023-03-31T02:15:58;12.10;98.10
45104;DHT22;30865;51.288;4.572;2023-03-31T02:18:27;12.10;97.70
45104;DHT22;30865;51.288;4.572;2023-03-31T02:20:56;12.20;97.70
45104;DHT22;30865;51.288;4.572;2023-03-31T02:23:25;12.20;98.30
45104;DHT22;30865;51.288;4.572;2023-03-31T02:26:18;12.30;97.00
45104;DHT22;30865;51.288;4.572;2023-03-31T02:28:42;12.40;96.20
45104;DHT22;30865;51.288;4.572;2023-03-31T02:33:42;12.40;97.10
45104;DHT22;30865;51.288;4.572;2023-03-31T02:36:08;12.30;98.30
45104;DHT22;30865;51.288;4.572;2023-03-31T02:38:38;12.20;98.10
45104;DHT22;30865;51.288;4.572;2023-03-31T02:41:07;12.20;98.50
45104;DHT22;30865;51.288;4.572;2023-03-31T02:43:33;12.10;99.00
45104;DHT22;30865;51.288;4.572;2023-03-31T02:45:58;12.10;99.10
45104;DHT22;30865;51.288;4.572;2023-03-31T02:48:27;12.10;99.00
45104;DHT22;30865;51.288;4.572;2023-03-31T02:53:56;12.00;99.90
45104;DHT22;30865;51.288;4.572;2023-03-31T02:59:12;11.90;99.90
45104;DHT22;30865;51.288;4.572;2023-03-31T03:02:06;11.90;99.90
45104;DHT22;30865;51.288;4.572;2023-03-31T03:04:51;11.80;99.90
45104;DHT22;30865;51.288;4.572;2023-03-31T03:07:43;11.80;99.90
45104;DHT22;30865;51.288;4.572;2023-03-31T03:10:19;11.90;99.90
45104;DHT22;30865;51.288;4.572;2023-03-31T03:16:08;11.70;99.90
45104;DHT22;30865;51.288;4.572;2023-03-31T03:18:38;11.70;99.90
45104;DHT22;30865;51.288;4.572;2023-03-31T03:21:04;11.60;99.90
45104;DHT22;30865;51.288;4.572;2023-03-31T03:23:29;11.60;99.90
45104;DHT22;30865;51.288;4.572;2023-03-31T03:25:55;11.50;99.90
45104;DHT22;30865;51.288;4.572;2023-03-31T03:28:21;11.40;99.90
45104;DHT22;30865;51.288;4.572;2023-03-31T03:30:47;11.30;99.90
45104;DHT22;30865;51.288;4.572;2023-03-31T03:33:12;11.30;99.90
45104;DHT22;30865;51.288;4.572;2023-03-31T03:35:41;11.30;99.90
45104;DHT22;30865;51.288;4.572;2023-03-31T03:38:07;11.20;99.90
45104;DHT22;30865;51.288;4.572;2023-03-31T03:40:32;11.30;99.90
45104;DHT22;30865;51.288;4.572;2023-03-31T03:42:58;11.30;99.90
45104;DHT22;30865;51.288;4.572;2023-03-31T03:45:23;11.30;99.90
45104;DHT22;30865;51.288;4.572;2023-03-31T03:47:49;11.30;99.90
45104;DHT22;30865;51.288;4.572;2023-03-31T03:50:15;11.20;99.90
45104;DHT22;30865;51.288;4.572;2023-03-31T03:52:40;11.20;99.90
45104;DHT22;30865;51.288;4.572;2023-03-31T03:55:06;11.20;99.90
45104;DHT22;30865;51.288;4.572;2023-03-31T03:57:32;11.10;99.90
45104;DHT22;30865;51.288;4.572;2023-03-31T03:59:57;11.20;99.90
45104;DHT22;30865;51.288;4.572;2023-03-31T04:02:23;11.20;99.90
45104;DHT22;30865;51.288;4.572;2023-03-31T04:04:49;11.20;99.90
45104;DHT22;30865;51.288;4.572;2023-03-31T04:07:14;11.20;99.90
45104;DHT22;30865;51.288;4.572;2023-03-31T04:09:40;11.20;99.90
45104;DHT22;30865;51.288;4.572;2023-03-31T04:12:05;11.10;99.90
45104;DHT22;30865;51.288;4.572;2023-03-31T04:14:31;11.00;99.90
45104;DHT22;30865;51.288;4.572;2023-03-31T04:16:57;11.00;99.90
45104;DHT22;30865;51.288;4.572;2023-03-31T04:19:23;10.90;99.90
45104;DHT22;30865;51.288;4.572;2023-03-31T04:21:52;10.90;99.90
45104;DHT22;30865;51.288;4.572;2023-03-31T04:24:27;10.90;99.90
45104;DHT22;30865;51.288;4.572;2023-03-31T04:26:58;10.90;99.90
45104;DHT22;30865;51.288;4.572;2023-03-31T04:29:24;10.90;99.90
45104;DHT22;30865;51.288;4.572;2023-03-31T04:31:52;10.90;99.90
45104;DHT22;30865;51.288;4.572;2023-03-31T04:34:18;11.00;99.90
45104;DHT22;30865;51.288;4.572;2023-03-31T04:36:46;10.90;99.90
45104;DHT22;30865;51.288;4.572;2023-03-31T04:39:14;11.00;99.90
45104;DHT22;30865;51.288;4.572;2023-03-31T04:41:40;11.10;99.90
45104;DHT22;30865;51.288;4.572;2023-03-31T04:44:06;11.10;99.90
45104;DHT22;30865;51.288;4.572;2023-03-31T04:46:32;11.10;99.90
45104;DHT22;30865;51.288;4.572;2023-03-31T04:48:58;11.20;99.90
45104;DHT22;30865;51.288;4.572;2023-03-31T04:51:25;11.20;99.90
45104;DHT22;30865;51.288;4.572;2023-03-31T04:53:50;11.10;99.90
45104;DHT22;30865;51.288;4.572;2023-03-31T04:56:16;11.10;99.90
45104;DHT22;30865;51.288;4.572;2023-03-31T04:58:41;11.10;99.90
45104;DHT22;30865;51.288;4.572;2023-03-31T05:01:08;11.10;99.90
45104;DHT22;30865;51.288;4.572;2023-03-31T05:03:34;11.20;99.90
45104;DHT22;30865;51.288;4.572;2023-03-31T05:06:00;11.20;99.90
45104;DHT22;30865;51.288;4.572;2023-03-31T05:08:25;11.20;99.90
45104;DHT22;30865;51.288;4.572;2023-03-31T05:10:54;11.20;99.90
45104;DHT22;30865;51.288;4.572;2023-03-31T05:13:19;11.20;99.90
45104;DHT22;30865;51.288;4.572;2023-03-31T05:15:45;11.20;99.90
45104;DHT22;30865;51.288;4.572;2023-03-31T05:18:12;11.20;99.90
45104;DHT22;30865;51.288;4.572;2023-03-31T05:20:37;11.20;99.90
45104;DHT22;30865;51.288;4.572;2023-03-31T05:23:03;11.10;99.90
45104;DHT22;30865;51.288;4.572;2023-03-31T05:25:29;11.10;99.90
45104;DHT22;30865;51.288;4.572;2023-03-31T05:27:57;11.00;99.90
45104;DHT22;30865;51.288;4.572;2023-03-31T05:30:24;11.00;99.90
45104;DHT22;30865;51.288;4.572;2023-03-31T05:32:50;11.00;99.90
45104;DHT22;30865;51.288;4.572;2023-03-31T05:35:16;11.00;99.90
45104;DHT22;30865;51.288;4.572;2023-03-31T05:37:42;11.00;99.90
45104;DHT22;30865;51.288;4.572;2023-03-31T05:40:08;10.90;99.90
45104;DHT22;30865;51.288;4.572;2023-03-31T05:42:34;10.90;99.90
45104;DHT22;30865;51.288;4.572;2023-03-31T05:44:59;10.90;99.90
45104;DHT22;30865;51.288;4.572;2023-03-31T05:47:25;10.80;99.90
45104;DHT22;30865;51.288;4.572;2023-03-31T05:49:50;10.70;99.90
45104;DHT22;30865;51.288;4.572;2023-03-31T05:52:16;10.60;99.90
45104;DHT22;30865;51.288;4.572;2023-03-31T05:54:41;10.60;99.90
45104;DHT22;30865;51.288;4.572;2023-03-31T05:57:08;10.60;99.90
45104;DHT22;30865;51.288;4.572;2023-03-31T05:59:34;10.50;99.90
45104;DHT22;30865;51.288;4.572;2023-03-31T06:02:03;10.40;99.90
45104;DHT22;30865;51.288;4.572;2023-03-31T06:04:29;10.30;99.90
45104;DHT22;30865;51.288;4.572;2023-03-31T06:06:57;10.20;99.90
45104;DHT22;30865;51.288;4.572;2023-03-31T06:09:23;10.20;99.90
45104;DHT22;30865;51.288;4.572;2023-03-31T06:11:48;10.10;99.90
45104;DHT22;30865;51.288;4.572;2023-03-31T06:14:14;10.10;99.90
45104;DHT22;30865;51.288;4.572;2023-03-31T06:16:39;10.10;99.90
45104;DHT22;30865;51.288;4.572;2023-03-31T06:19:05;10.10;99.90
45104;DHT22;30865;51.288;4.572;2023-03-31T06:21:31;10.10;99.90
45104;DHT22;30865;51.288;4.572;2023-03-31T06:23:57;10.10;99.90
45104;DHT22;30865;51.288;4.572;2023-03-31T06:26:24;10.10;99.90
45104;DHT22;30865;51.288;4.572;2023-03-31T06:28:51;10.10;99.90
45104;DHT22;30865;51.288;4.572;2023-03-31T06:31:18;10.10;99.90
45104;DHT22;30865;51.288;4.572;2023-03-31T06:33:45;10.10;99.90
45104;DHT22;30865;51.288;4.572;2023-03-31T06:36:12;10.10;99.90
45104;DHT22;30865;51.288;4.572;2023-03-31T06:38:38;10.10;99.90
45104;DHT22;30865;51.288;4.572;2023-03-31T06:41:05;10.00;99.90
45104;DHT22;30865;51.288;4.572;2023-03-31T06:43:31;10.10;99.90
45104;DHT22;30865;51.288;4.572;2023-03-31T06:45:57;10.00;99.90
45104;DHT22;30865;51.288;4.572;2023-03-31T06:48:23;10.00;99.90
45104;DHT22;30865;51.288;4.572;2023-03-31T06:50:50;10.00;99.90
45104;DHT22;30865;51.288;4.572;2023-03-31T06:53:16;10.00;99.90
45104;DHT22;30865;51.288;4.572;2023-03-31T06:55:42;10.00;99.90
45104;DHT22;30865;51.288;4.572;2023-03-31T06:58:07;10.00;99.90
45104;DHT22;30865;51.288;4.572;2023-03-31T07:00:33;10.00;99.90
45104;DHT22;30865;51.288;4.572;2023-03-31T07:02:59;9.90;99.90
45104;DHT22;30865;51.288;4.572;2023-03-31T07:05:26;9.90;99.90
45104;DHT22;30865;51.288;4.572;2023-03-31T07:07:53;10.00;99.90
45104;DHT22;30865;51.288;4.572;2023-03-31T07:10:19;10.00;99.90
45104;DHT22;30865;51.288;4.572;2023-03-31T07:12:45;10.00;99.90
45104;DHT22;30865;51.288;4.572;2023-03-31T07:15:10;10.10;99.90
45104;DHT22;30865;51.288;4.572;2023-03-31T07:17:36;10.10;99.90
45104;DHT22;30865;51.288;4.572;2023-03-31T07:20:09;10.00;99.90
45104;DHT22;30865;51.288;4.572;2023-03-31T07:22:39;10.10;99.90
45104;DHT22;30865;51.288;4.572;2023-03-31T07:25:06;10.20;99.90
45104;DHT22;30865;51.288;4.572;2023-03-31T07:27:33;10.20;99.90
45104;DHT22;30865;51.288;4.572;2023-03-31T07:29:58;10.30;99.90
45104;DHT22;30865;51.288;4.572;2023-03-31T07:32:24;10.40;99.90
45104;DHT22;30865;51.288;4.572;2023-03-31T07:34:49;10.40;99.90
45104;DHT22;30865;51.288;4.572;2023-03-31T07:37:15;10.40;99.90
45104;DHT22;30865;51.288;4.572;2023-03-31T07:39:40;10.40;99.90
45104;DHT22;30865;51.288;4.572;2023-03-31T07:42:06;10.50;99.90
45104;DHT22;30865;51.288;4.572;2023-03-31T07:44:35;10.60;99.90
45104;DHT22;30865;51.288;4.572;2023-03-31T07:47:02;10.70;99.90
45104;DHT22;30865;51.288;4.572;2023-03-31T07:49:33;10.90;99.90
45104;DHT22;30865;51.288;4.572;2023-03-31T07:51:59;11.00;99.90
45104;DHT22;30865;51.288;4.572;2023-03-31T07:54:24;10.90;99.90
45104;DHT22;30865;51.288;4.572;2023-03-31T07:56:50;10.80;99.90
45104;DHT22;30865;51.288;4.572;2023-03-31T07:59:16;10.80;99.90
45104;DHT22;30865;51.288;4.572;2023-03-31T08:01:42;11.10;99.90
45104;DHT22;30865;51.288;4.572;2023-03-31T08:04:09;11.10;99.90
45104;DHT22;30865;51.288;4.572;2023-03-31T08:06:35;11.10;99.90
45104;DHT22;30865;51.288;4.572;2023-03-31T08:09:01;11.20;99.90
45104;DHT22;30865;51.288;4.572;2023-03-31T08:11:28;11.20;99.90
45104;DHT22;30865;51.288;4.572;2023-03-31T08:13:53;11.20;99.90
45104;DHT22;30865;51.288;4.572;2023-03-31T08:16:19;11.30;99.90
45104;DHT22;30865;51.288;4.572;2023-03-31T08:18:45;11.50;99.90
45104;DHT22;30865;51.288;4.572;2023-03-31T08:21:10;11.70;99.90
45104;DHT22;30865;51.288;4.572;2023-03-31T08:23:36;11.80;99.90
45104;DHT22;30865;51.288;4.572;2023-03-31T08:26:11;11.90;99.90
45104;DHT22;30865;51.288;4.572;2023-03-31T08:28:37;12.00;99.90
45104;DHT22;30865;51.288;4.572;2023-03-31T08:31:04;12.00;99.90
45104;DHT22;30865;51.288;4.572;2023-03-31T08:33:30;12.10;99.90
45104;DHT22;30865;51.288;4.572;2023-03-31T08:36:00;12.10;99.90
45104;DHT22;30865;51.288;4.572;2023-03-31T08:38:28;12.40;99.90
45104;DHT22;30865;51.288;4.572;2023-03-31T08:41:05;12.50;99.90
45104;DHT22;30865;51.288;4.572;2023-03-31T08:43:39;12.60;99.90
45104;DHT22;30865;51.288;4.572;2023-03-31T08:46:10;12.70;99.90
45104;DHT22;30865;51.288;4.572;2023-03-31T08:48:43;12.70;99.90
45104;DHT22;30865;51.288;4.572;2023-03-31T08:51:23;12.90;99.90
45104;DHT22;30865;51.288;4.572;2023-03-31T08:53:56;13.00;99.90
45104;DHT22;30865;51.288;4.572;2023-03-31T08:56:25;13.10;99.90
45104;DHT22;30865;51.288;4.572;2023-03-31T08:58:51;13.10;99.90
45104;DHT22;30865;51.288;4.572;2023-03-31T09:01:47;13.20;99.90
45104;DHT22;30865;51.288;4.572;2023-03-31T09:07:32;13.50;99.90
45104;DHT22;30865;51.288;4.572;2023-03-31T09:15:17;13.90;99.90
45104;DHT22;30865;51.288;4.572;2023-03-31T09:17:48;14.10;99.90
45104;DHT22;30865;51.288;4.572;2023-03-31T09:20:26;14.30;99.90
45104;DHT22;30865;51.288;4.572;2023-03-31T09:25:43;14.60;99.40
45104;DHT22;30865;51.288;4.572;2023-03-31T09:28:19;14.50;97.30
45104;DHT22;30865;51.288;4.572;2023-03-31T09:30:47;14.80;95.80
45104;DHT22;30865;51.288;4.572;2023-03-31T09:35:42;15.00;93.10
45104;DHT22;30865;51.288;4.572;2023-03-31T09:38:10;15.00;93.80
45104;DHT22;30865;51.288;4.572;2023-03-31T09:40:36;14.80;93.00
45104;DHT22;30865;51.288;4.572;2023-03-31T09:43:14;14.70;93.00
45104;DHT22;30865;51.288;4.572;2023-03-31T09:45:43;14.70;93.40
45104;DHT22;30865;51.288;4.572;2023-03-31T09:48:13;14.70;93.00
45104;DHT22;30865;51.288;4.572;2023-03-31T09:50:45;14.70;93.40
45104;DHT22;30865;51.288;4.572;2023-03-31T09:53:18;14.50;94.50
45104;DHT22;30865;51.288;4.572;2023-03-31T09:55:51;14.40;94.80
45104;DHT22;30865;51.288;4.572;2023-03-31T09:58:17;14.20;94.60
45104;DHT22;30865;51.288;4.572;2023-03-31T10:01:04;14.20;97.60
45104;DHT22;30865;51.288;4.572;2023-03-31T10:03:31;14.40;94.00
45104;DHT22;30865;51.288;4.572;2023-03-31T10:06:01;14.50;93.80
45104;DHT22;30865;51.288;4.572;2023-03-31T10:08:40;14.60;93.50
45104;DHT22;30865;51.288;4.572;2023-03-31T10:11:09;14.80;93.30
45104;DHT22;30865;51.288;4.572;2023-03-31T10:13:39;14.90;90.90
45104;DHT22;30865;51.288;4.572;2023-03-31T10:16:10;15.00;90.60
45104;DHT22;30865;51.288;4.572;2023-03-31T10:18:39;15.10;90.60
45104;DHT22;30865;51.288;4.572;2023-03-31T10:21:26;15.20;90.30
45104;DHT22;30865;51.288;4.572;2023-03-31T10:23:53;15.30;90.50
45104;DHT22;30865;51.288;4.572;2023-03-31T10:26:21;15.30;86.60
45104;DHT22;30865;51.288;4.572;2023-03-31T10:28:49;15.30;87.20
45104;DHT22;30865;51.288;4.572;2023-03-31T10:31:24;15.50;86.00
45104;DHT22;30865;51.288;4.572;2023-03-31T10:33:51;15.60;83.30
45104;DHT22;30865;51.288;4.572;2023-03-31T10:36:23;15.70;86.20
45104;DHT22;30865;51.288;4.572;2023-03-31T10:38:52;15.90;80.60
45104;DHT22;30865;51.288;4.572;2023-03-31T10:41:20;16.00;83.20
45104;DHT22;30865;51.288;4.572;2023-03-31T10:43:58;16.00;81.80
45104;DHT22;30865;51.288;4.572;2023-03-31T10:49:26;16.00;79.30
45104;DHT22;30865;51.288;4.572;2023-03-31T10:51:53;15.80;76.10
45104;DHT22;30865;51.288;4.572;2023-03-31T10:54:20;15.90;76.60
45104;DHT22;30865;51.288;4.572;2023-03-31T10:56:47;15.80;75.20
45104;DHT22;30865;51.288;4.572;2023-03-31T11:02:19;15.80;76.50
45104;DHT22;30865;51.288;4.572;2023-03-31T11:04:55;16.10;74.00
45104;DHT22;30865;51.288;4.572;2023-03-31T11:10:51;16.40;74.10
45104;DHT22;30865;51.288;4.572;2023-03-31T11:13:43;16.40;72.10
45104;DHT22;30865;51.288;4.572;2023-03-31T11:16:24;16.40;71.70
45104;DHT22;30865;51.288;4.572;2023-03-31T11:19:28;16.10;71.60
45104;DHT22;30865;51.288;4.572;2023-03-31T11:22:00;16.00;71.60
45104;DHT22;30865;51.288;4.572;2023-03-31T11:30:16;13.10;93.30
45104;DHT22;30865;51.288;4.572;2023-03-31T11:33:14;10.30;99.90
45104;DHT22;30865;51.288;4.572;2023-03-31T11:42:18;9.40;99.90
45104;DHT22;30865;51.288;4.572;2023-03-31T11:44:27;9.40;99.90
45104;DHT22;30865;51.288;4.572;2023-03-31T11:46:59;9.50;99.90
45104;DHT22;30865;51.288;4.572;2023-03-31T11:49:29;9.60;99.90
45104;DHT22;30865;51.288;4.572;2023-03-31T11:51:58;9.50;99.90
45104;DHT22;30865;51.288;4.572;2023-03-31T11:54:30;9.40;99.90
45104;DHT22;30865;51.288;4.572;2023-03-31T11:57:01;9.40;99.90
45104;DHT22;30865;51.288;4.572;2023-03-31T11:59:28;9.50;99.90
45104;DHT22;30865;51.288;4.572;2023-03-31T12:02:03;9.50;99.90
45104;DHT22;30865;51.288;4.572;2023-03-31T12:04:58;9.70;99.90
45104;DHT22;30865;51.288;4.572;2023-03-31T12:08:39;9.80;99.90
45104;DHT22;30865;51.288;4.572;2023-03-31T12:10:37;10.10;99.90
45104;DHT22;30865;51.288;4.572;2023-03-31T12:13:35;10.40;99.90
45104;DHT22;30865;51.288;4.572;2023-03-31T12:19:17;11.00;99.90
45104;DHT22;30865;51.288;4.572;2023-03-31T12:21:51;11.00;99.90
45104;DHT22;30865;51.288;4.572;2023-03-31T12:24:17;11.10;99.90
45104;DHT22;30865;51.288;4.572;2023-03-31T12:29:59;11.60;99.90
45104;DHT22;30865;51.288;4.572;2023-03-31T12:32:42;11.70;99.90
45104;DHT22;30865;51.288;4.572;2023-03-31T12:40:40;12.20;99.90
45104;DHT22;30865;51.288;4.572;2023-03-31T12:43:14;12.30;99.90
45104;DHT22;30865;51.288;4.572;2023-03-31T12:46:09;12.40;99.90
45104;DHT22;30865;51.288;4.572;2023-03-31T12:55:01;12.40;99.90
45104;DHT22;30865;51.288;4.572;2023-03-31T12:57:33;12.70;99.90
45104;DHT22;30865;51.288;4.572;2023-03-31T13:02:46;13.10;98.40
45104;DHT22;30865;51.288;4.572;2023-03-31T13:08:03;12.90;98.40
45104;DHT22;30865;51.288;4.572;2023-03-31T13:10:31;12.90;99.60
45104;DHT22;30865;51.288;4.572;2023-03-31T13:13:13;13.10;95.70
45104;DHT22;30865;51.288;4.572;2023-03-31T13:15:39;13.40;95.00
45104;DHT22;30865;51.288;4.572;2023-03-31T13:18:06;13.40;94.80
45104;DHT22;30865;51.288;4.572;2023-03-31T13:20:32;13.50;98.70
45104;DHT22;30865;51.288;4.572;2023-03-31T13:23:19;13.30;96.70
45104;DHT22;30865;51.288;4.572;2023-03-31T13:25:50;13.20;94.50
45104;DHT22;30865;51.288;4.572;2023-03-31T13:31:09;13.00;97.10
45104;DHT22;30865;51.288;4.572;2023-03-31T13:33:55;12.60;97.80
45104;DHT22;30865;51.288;4.572;2023-03-31T13:47:37;11.90;99.30
45104;DHT22;30865;51.288;4.572;2023-03-31T13:56:22;11.50;99.90
45104;DHT22;30865;51.288;4.572;2023-03-31T13:59:18;11.10;99.90
45104;DHT22;30865;51.288;4.572;2023-03-31T14:07:09;10.90;99.90
45104;DHT22;30865;51.288;4.572;2023-03-31T14:09:41;10.70;99.90
45104;DHT22;30865;51.288;4.572;2023-03-31T14:12:36;10.60;99.90
45104;DHT22;30865;51.288;4.572;2023-03-31T14:15:02;10.80;99.90
45104;DHT22;30865;51.288;4.572;2023-03-31T14:17:32;10.70;99.90
45104;DHT22;30865;51.288;4.572;2023-03-31T14:28:02;11.90;99.90
45104;DHT22;30865;51.288;4.572;2023-03-31T14:30:38;12.00;99.90
45104;DHT22;30865;51.288;4.572;2023-03-31T14:33:37;12.20;99.90
45104;DHT22;30865;51.288;4.572;2023-03-31T14:38:50;12.00;99.90
45104;DHT22;30865;51.288;4.572;2023-03-31T14:41:20;12.10;99.30
45104;DHT22;30865;51.288;4.572;2023-03-31T14:43:55;12.10;99.90
45104;DHT22;30865;51.288;4.572;2023-03-31T14:46:21;12.30;97.20
45104;DHT22;30865;51.288;4.572;2023-03-31T14:48:49;12.30;97.60
45104;DHT22;30865;51.288;4.572;2023-03-31T14:51:18;12.50;99.10
45104;DHT22;30865;51.288;4.572;2023-03-31T14:53:54;12.40;97.70
45104;DHT22;30865;51.288;4.572;2023-03-31T14:56:22;12.40;97.40
45104;DHT22;30865;51.288;4.572;2023-03-31T14:58:53;12.50;97.50
45104;DHT22;30865;51.288;4.572;2023-03-31T15:01:24;12.40;97.50
45104;DHT22;30865;51.288;4.572;2023-03-31T15:03:51;12.60;99.50
45104;DHT22;30865;51.288;4.572;2023-03-31T15:06:18;12.70;97.80
45104;DHT22;30865;51.288;4.572;2023-03-31T15:08:43;12.40;97.40
45104;DHT22;30865;51.288;4.572;2023-03-31T15:11:17;12.50;98.00
45104;DHT22;30865;51.288;4.572;2023-03-31T15:13:45;12.50;98.10
45104;DHT22;30865;51.288;4.572;2023-03-31T15:18:59;12.90;97.80
45104;DHT22;30865;51.288;4.572;2023-03-31T15:21:26;12.80;98.50
45104;DHT22;30865;51.288;4.572;2023-03-31T15:23:55;12.90;97.90
45104;DHT22;30865;51.288;4.572;2023-03-31T15:26:29;13.10;98.00
45104;DHT22;30865;51.288;4.572;2023-03-31T15:29:27;12.90;97.00
45104;DHT22;30865;51.288;4.572;2023-03-31T15:31:57;12.70;96.50
45104;DHT22;30865;51.288;4.572;2023-03-31T15:34:30;13.00;98.00
45104;DHT22;30865;51.288;4.572;2023-03-31T15:37:01;13.30;97.00
45104;DHT22;30865;51.288;4.572;2023-03-31T15:39:31;13.40;95.90
45104;DHT22;30865;51.288;4.572;2023-03-31T15:41:59;13.30;96.00
45104;DHT22;30865;51.288;4.572;2023-03-31T15:44:38;13.60;96.30
45104;DHT22;30865;51.288;4.572;2023-03-31T15:47:19;13.70;94.80
45104;DHT22;30865;51.288;4.572;2023-03-31T15:50:11;13.30;95.60
45104;DHT22;30865;51.288;4.572;2023-03-31T15:52:44;13.00;97.30
45104;DHT22;30865;51.288;4.572;2023-03-31T15:55:39;12.80;97.90
45104;DHT22;30865;51.288;4.572;2023-03-31T15:58:05;12.70;98.20
45104;DHT22;30865;51.288;4.572;2023-03-31T16:00:43;12.30;98.50
45104;DHT22;30865;51.288;4.572;2023-03-31T16:05:56;12.10;99.40
45104;DHT22;30865;51.288;4.572;2023-03-31T16:08:27;12.00;99.00
45104;DHT22;30865;51.288;4.572;2023-03-31T16:11:00;11.90;99.20
45104;DHT22;30865;51.288;4.572;2023-03-31T16:13:29;11.90;99.80
45104;DHT22;30865;51.288;4.572;2023-03-31T16:15:56;11.90;99.90
45104;DHT22;30865;51.288;4.572;2023-03-31T16:18:24;11.80;99.40
45104;DHT22;30865;51.288;4.572;2023-03-31T16:20:54;11.60;99.90
45104;DHT22;30865;51.288;4.572;2023-03-31T16:23:25;11.60;99.90
45104;DHT22;30865;51.288;4.572;2023-03-31T16:25:51;11.60;99.90
45104;DHT22;30865;51.288;4.572;2023-03-31T16:28:21;11.60;99.90
45104;DHT22;30865;51.288;4.572;2023-03-31T16:30:48;11.50;99.90
45104;DHT22;30865;51.288;4.572;2023-03-31T16:33:21;11.50;99.90
45104;DHT22;30865;51.288;4.572;2023-03-31T16:35:50;11.40;99.90
45104;DHT22;30865;51.288;4.572;2023-03-31T16:38:18;11.40;99.90
45104;DHT22;30865;51.288;4.572;2023-03-31T16:40:46;11.40;99.90
45104;DHT22;30865;51.288;4.572;2023-03-31T16:43:26;11.40;99.90
45104;DHT22;30865;51.288;4.572;2023-03-31T16:45:57;11.40;99.90
45104;DHT22;30865;51.288;4.572;2023-03-31T16:48:25;11.50;99.90
45104;DHT22;30865;51.288;4.572;2023-03-31T16:50:52;11.30;99.90
45104;DHT22;30865;51.288;4.572;2023-03-31T16:53:24;11.20;99.90
45104;DHT22;30865;51.288;4.572;2023-03-31T16:55:50;11.00;99.90
45104;DHT22;30865;51.288;4.572;2023-03-31T16:58:16;10.90;99.90
45104;DHT22;30865;51.288;4.572;2023-03-31T17:00:42;10.80;99.60
45104;DHT22;30865;51.288;4.572;2023-03-31T17:03:10;10.80;99.70
45104;DHT22;30865;51.288;4.572;2023-03-31T17:05:44;10.70;99.90
45104;DHT22;30865;51.288;4.572;2023-03-31T17:08:11;10.60;99.40
45104;DHT22;30865;51.288;4.572;2023-03-31T17:10:38;10.60;99.30
45104;DHT22;30865;51.288;4.572;2023-03-31T17:13:04;10.50;99.90
45104;DHT22;30865;51.288;4.572;2023-03-31T17:15:30;10.50;99.90
45104;DHT22;30865;51.288;4.572;2023-03-31T17:17:57;10.50;99.90
45104;DHT22;30865;51.288;4.572;2023-03-31T17:20:24;10.40;99.90
45104;DHT22;30865;51.288;4.572;2023-03-31T17:22:49;10.40;99.90
45104;DHT22;30865;51.288;4.572;2023-03-31T17:25:16;10.40;99.90
45104;DHT22;30865;51.288;4.572;2023-03-31T17:27:43;10.30;99.90
45104;DHT22;30865;51.288;4.572;2023-03-31T17:30:09;10.30;99.90
45104;DHT22;30865;51.288;4.572;2023-03-31T17:32:35;10.30;99.90
45104;DHT22;30865;51.288;4.572;2023-03-31T17:35:01;10.30;99.90
45104;DHT22;30865;51.288;4.572;2023-03-31T17:37:27;10.20;99.90
45104;DHT22;30865;51.288;4.572;2023-03-31T17:39:53;10.20;99.90
45104;DHT22;30865;51.288;4.572;2023-03-31T17:42:19;10.20;99.90
45104;DHT22;30865;51.288;4.572;2023-03-31T17:44:45;10.10;99.90
45104;DHT22;30865;51.288;4.572;2023-03-31T17:47:14;10.10;99.90
45104;DHT22;30865;51.288;4.572;2023-03-31T17:49:40;10.10;99.90
45104;DHT22;30865;51.288;4.572;2023-03-31T17:52:06;10.10;99.90
45104;DHT22;30865;51.288;4.572;2023-03-31T17:54:31;10.00;99.90
45104;DHT22;30865;51.288;4.572;2023-03-31T17:56:57;10.00;99.90
45104;DHT22;30865;51.288;4.572;2023-03-31T17:59:23;10.00;99.90
45104;DHT22;30865;51.288;4.572;2023-03-31T18:01:52;10.00;99.90
45104;DHT22;30865;51.288;4.572;2023-03-31T18:04:18;10.00;99.90
45104;DHT22;30865;51.288;4.572;2023-03-31T18:06:44;10.10;99.90
45104;DHT22;30865;51.288;4.572;2023-03-31T18:09:11;10.00;99.90